createdAt,value
2019-02-18T00:02:31.683Z,48.70
2019-02-18T00:05:23.830Z,47.80
2019-02-18T00:08:16.097Z,48.40
2019-02-18T00:11:08.454Z,48.20
2019-02-18T00:14:00.792Z,48.20
2019-02-18T00:16:52.701Z,48.20
2019-02-18T00:19:44.861Z,47.60
2019-02-18T00:22:36.947Z,48.00
2019-02-18T00:25:29.295Z,48.30
2019-02-18T00:28:21.512Z,47.50
2019-02-18T00:31:13.649Z,47.60
2019-02-18T00:34:05.660Z,47.90
2019-02-18T00:36:57.922Z,48.00
2019-02-18T00:39:50.082Z,47.80
2019-02-18T00:42:42.842Z,48.00
2019-02-18T00:45:35.053Z,48.20
2019-02-18T00:48:27.283Z,48.10
2019-02-18T00:51:19.522Z,48.10
2019-02-18T00:54:11.693Z,48.80
2019-02-18T00:57:04.093Z,49.00
2019-02-18T00:59:56.441Z,48.70
2019-02-18T01:02:48.724Z,48.60
2019-02-18T01:05:40.816Z,48.70
2019-02-18T01:08:33.105Z,49.00
2019-02-18T01:11:25.576Z,48.80
2019-02-18T01:14:17.541Z,48.80
2019-02-18T01:17:09.840Z,48.50
2019-02-18T01:20:02.045Z,48.90
2019-02-18T01:22:55.115Z,49.70
2019-02-18T01:25:47.261Z,49.70
2019-02-18T01:28:39.336Z,49.70
2019-02-18T01:31:31.551Z,49.40
2019-02-18T01:34:23.912Z,49.10
2019-02-18T01:37:16.374Z,49.00
2019-02-18T01:40:09.508Z,49.20
2019-02-18T01:43:02.018Z,49.10
2019-02-18T01:45:54.179Z,49.30
2019-02-18T01:48:46.852Z,49.30
2019-02-18T01:51:38.822Z,49.10
2019-02-18T01:54:31.036Z,48.90
2019-02-18T01:57:23.216Z,49.00
2019-02-18T02:00:16.931Z,49.30
2019-02-18T02:03:09.150Z,49.40
2019-02-18T02:06:01.383Z,49.90
2019-02-18T02:08:53.750Z,50.20
2019-02-18T02:11:46.353Z,50.50
2019-02-18T02:14:38.500Z,50.80
2019-02-18T02:17:30.564Z,51.20
2019-02-18T02:20:22.780Z,51.90
2019-02-18T02:23:15.139Z,52.20
2019-02-18T02:26:07.367Z,52.10
2019-02-18T02:28:59.516Z,52.10
2019-02-18T02:31:51.658Z,51.60
2019-02-18T02:34:43.674Z,51.90
2019-02-18T02:37:35.757Z,52.20
2019-02-18T02:40:28.019Z,52.00
2019-02-18T02:43:20.087Z,51.80
2019-02-18T02:46:12.419Z,51.80
2019-02-18T02:49:04.393Z,51.70
2019-02-18T02:51:56.449Z,51.20
2019-02-18T02:54:48.512Z,51.10
2019-02-18T02:57:40.750Z,50.90
2019-02-18T03:00:32.645Z,51.00
2019-02-18T03:03:24.880Z,50.60
2019-02-18T03:06:16.918Z,50.90
2019-02-18T03:09:11.096Z,50.50
2019-02-18T03:12:03.739Z,50.40
2019-02-18T03:14:55.698Z,50.20
2019-02-18T03:17:47.755Z,49.90
2019-02-18T03:20:40.172Z,50.10
2019-02-18T03:23:32.145Z,49.60
2019-02-18T03:26:24.225Z,49.90
2019-02-18T03:29:33.260Z,49.20
2019-02-18T03:32:25.472Z,48.90
2019-02-18T03:35:18.239Z,48.90
2019-02-18T03:38:10.391Z,48.90
2019-02-18T03:41:03.359Z,48.20
2019-02-18T03:43:56.038Z,48.60
2019-02-18T03:46:50.653Z,48.70
2019-02-18T03:49:42.506Z,48.70
2019-02-18T03:52:35.172Z,48.90
2019-02-18T03:55:27.516Z,48.90
2019-02-18T03:58:19.431Z,47.80
2019-02-18T04:01:11.275Z,47.30
2019-02-18T04:04:03.287Z,47.00
2019-02-18T04:06:55.838Z,47.50
2019-02-18T04:09:48.222Z,48.10
2019-02-18T04:12:40.441Z,48.20
2019-02-18T04:15:32.720Z,47.80
2019-02-18T04:18:25.391Z,47.50
2019-02-18T04:21:17.678Z,46.90
2019-02-18T04:24:10.014Z,47.60
2019-02-18T04:27:02.121Z,49.00
2019-02-18T04:29:54.443Z,47.30
2019-02-18T04:32:46.780Z,46.60
2019-02-18T04:35:38.698Z,47.80
2019-02-18T04:38:31.969Z,48.50
2019-02-18T04:41:24.553Z,48.40
2019-02-18T04:44:19.115Z,46.90
2019-02-18T04:47:13.159Z,46.20
2019-02-18T04:50:05.389Z,47.30
2019-02-18T04:52:58.467Z,47.20
2019-02-18T04:55:50.642Z,47.80
2019-02-18T04:58:43.108Z,48.20
2019-02-18T05:01:35.396Z,47.90
2019-02-18T05:04:32.037Z,48.10
2019-02-18T05:07:25.060Z,47.80
2019-02-18T05:10:17.285Z,47.40
2019-02-18T05:13:13.901Z,47.30
2019-02-18T05:16:06.686Z,47.80
2019-02-18T05:19:02.967Z,48.00
2019-02-18T05:22:03.166Z,48.30
2019-02-18T05:25:03.601Z,48.40
2019-02-18T05:28:09.044Z,48.00
2019-02-18T05:31:07.738Z,48.40
2019-02-18T05:34:01.795Z,48.10
2019-02-18T05:36:56.211Z,48.00
2019-02-18T05:39:51.979Z,48.40
2019-02-18T05:42:47.263Z,48.40
2019-02-18T05:45:40.470Z,47.40
2019-02-18T05:48:39.988Z,46.80
2019-02-18T05:51:47.960Z,47.10
2019-02-18T05:54:41.659Z,47.10
2019-02-18T05:57:37.271Z,45.70
2019-02-18T06:00:31.619Z,45.40
2019-02-18T06:03:24.404Z,45.30
2019-02-18T06:06:17.287Z,44.90
2019-02-18T06:09:09.819Z,44.20
2019-02-18T06:12:02.387Z,43.20
2019-02-18T06:14:55.769Z,43.30
2019-02-18T06:17:49.518Z,44.70
2019-02-18T06:20:42.168Z,44.10
2019-02-18T06:23:36.394Z,43.80
2019-02-18T06:26:29.675Z,43.60
2019-02-18T06:29:23.264Z,43.40
2019-02-18T06:32:16.442Z,43.20
2019-02-18T06:35:11.209Z,43.00
2019-02-18T06:38:08.211Z,42.90
2019-02-18T06:41:02.306Z,43.10
2019-02-18T06:43:55.435Z,42.70
2019-02-18T06:46:58.996Z,42.60
2019-02-18T06:49:52.735Z,43.10
2019-02-18T06:52:45.525Z,43.40
2019-02-18T06:55:37.403Z,43.50
2019-02-18T06:58:40.592Z,44.10
2019-02-18T07:02:00.880Z,45.00
2019-02-18T07:05:09.265Z,45.50
2019-02-18T07:08:14.397Z,45.60
2019-02-18T07:11:20.506Z,45.10
2019-02-18T07:14:14.188Z,43.60
2019-02-18T07:17:07.003Z,42.30
2019-02-18T07:19:59.381Z,41.90
2019-02-18T07:22:51.597Z,41.80
2019-02-18T07:25:44.151Z,42.70
2019-02-18T07:28:36.383Z,42.30
2019-02-18T07:31:29.510Z,41.60
2019-02-18T07:34:22.068Z,40.80
2019-02-18T07:37:15.908Z,40.20
2019-02-18T07:40:08.802Z,40.20
2019-02-18T07:43:00.728Z,40.30
2019-02-18T07:45:53.146Z,40.60
2019-02-18T07:48:48.083Z,40.60
2019-02-18T07:51:41.822Z,40.30
2019-02-18T07:54:36.860Z,41.00
2019-02-18T07:57:31.519Z,41.50
2019-02-18T08:00:24.636Z,41.40
2019-02-18T08:03:16.746Z,41.10
2019-02-18T08:06:09.181Z,40.30
2019-02-18T08:09:02.697Z,40.30
2019-02-18T08:11:55.098Z,41.30
2019-02-18T08:14:50.606Z,42.00
2019-02-18T08:17:42.725Z,42.20
2019-02-18T08:20:35.046Z,42.60
2019-02-18T08:23:29.093Z,42.30
2019-02-18T08:26:21.881Z,41.60
2019-02-18T08:29:15.018Z,42.10
2019-02-18T08:32:07.283Z,42.50
2019-02-18T08:35:01.257Z,42.50
2019-02-18T08:37:55.572Z,42.50
2019-02-18T08:40:48.285Z,42.00
2019-02-18T08:43:42.413Z,40.80
2019-02-18T08:46:37.891Z,40.50
2019-02-18T08:49:31.804Z,40.90
2019-02-18T08:52:24.652Z,41.20
2019-02-18T08:55:16.990Z,41.00
2019-02-18T08:58:09.549Z,40.60
2019-02-18T09:01:03.041Z,40.70
2019-02-18T09:03:55.576Z,40.70
2019-02-18T09:06:47.816Z,41.00
2019-02-18T09:09:40.730Z,40.90
2019-02-18T09:12:33.153Z,40.90
2019-02-18T09:15:25.302Z,41.50
2019-02-18T09:18:17.795Z,41.40
2019-02-18T09:21:10.079Z,41.00
2019-02-18T09:24:29.712Z,40.50
2019-02-18T09:27:22.851Z,39.80
2019-02-18T09:30:17.213Z,39.50
2019-02-18T09:33:12.600Z,39.90
2019-02-18T09:36:07.413Z,39.60
2019-02-18T09:39:01.341Z,39.80
2019-02-18T09:41:55.576Z,40.50
2019-02-18T09:44:48.497Z,40.90
2019-02-18T09:47:41.335Z,41.30
2019-02-18T09:50:36.923Z,41.50
2019-02-18T09:53:29.846Z,41.50
2019-02-18T09:56:22.262Z,41.40
2019-02-18T09:59:14.467Z,41.80
2019-02-18T10:02:08.653Z,42.20
2019-02-18T10:05:03.206Z,42.20
2019-02-18T10:07:55.830Z,42.80
2019-02-18T10:10:55.945Z,42.60
2019-02-18T10:13:45.836Z,42.30
2019-02-18T10:16:41.942Z,41.60
2019-02-18T10:19:34.984Z,41.00
2019-02-18T10:22:27.999Z,41.70
2019-02-18T10:25:23.046Z,42.00
2019-02-18T10:28:16.650Z,42.00
2019-02-18T10:31:09.804Z,41.40
2019-02-18T10:34:05.602Z,41.70
2019-02-18T10:36:59.485Z,42.20
2019-02-18T10:39:53.125Z,41.90
2019-02-18T10:42:45.054Z,41.40
2019-02-18T10:45:38.258Z,40.70
2019-02-18T10:48:32.093Z,40.20
2019-02-18T10:51:27.226Z,40.50
2019-02-18T10:54:22.956Z,40.20
2019-02-18T10:57:18.267Z,40.50
2019-02-18T11:00:13.278Z,40.50
2019-02-18T11:03:07.792Z,40.50
2019-02-18T11:06:01.361Z,39.70
2019-02-18T11:08:55.318Z,39.80
2019-02-18T11:11:48.154Z,41.00
2019-02-18T11:14:41.419Z,42.30
2019-02-18T11:17:39.014Z,43.20
2019-02-18T11:20:30.882Z,44.20
2019-02-18T11:23:25.911Z,43.90
2019-02-18T11:26:21.145Z,42.90
2019-02-18T11:29:14.438Z,42.90
2019-02-18T11:32:07.298Z,43.40
2019-02-18T11:35:00.646Z,43.60
2019-02-18T11:37:53.155Z,43.30
2019-02-18T11:40:46.175Z,43.10
2019-02-18T11:43:40.124Z,42.30
2019-02-18T11:46:34.249Z,42.00
2019-02-18T11:49:28.602Z,41.80
2019-02-18T11:52:20.772Z,42.50
2019-02-18T11:55:15.602Z,42.80
2019-02-18T11:58:09.610Z,42.80
2019-02-18T12:01:01.897Z,42.70
2019-02-18T12:03:55.645Z,42.60
2019-02-18T12:06:52.037Z,42.50
2019-02-18T12:09:47.071Z,42.50
2019-02-18T12:12:40.060Z,42.50
2019-02-18T12:15:32.837Z,42.60
2019-02-18T12:18:25.387Z,42.90
2019-02-18T12:21:17.815Z,42.90
2019-02-18T12:24:10.015Z,43.30
2019-02-18T12:27:03.384Z,44.60
2019-02-18T12:29:55.726Z,45.10
2019-02-18T12:32:47.709Z,44.90
2019-02-18T12:35:39.653Z,45.80
2019-02-18T12:38:32.590Z,46.50
2019-02-18T12:41:24.499Z,47.10
2019-02-18T12:44:17.676Z,47.10
2019-02-18T12:47:09.911Z,47.80
2019-02-18T12:50:01.953Z,48.00
2019-02-18T12:52:54.213Z,48.60
2019-02-18T12:55:45.984Z,48.30
2019-02-18T12:58:38.652Z,48.30
2019-02-18T13:01:31.029Z,49.30
2019-02-18T13:04:23.938Z,49.30
2019-02-18T13:07:16.181Z,49.10
2019-02-18T13:10:08.245Z,49.80
2019-02-18T13:13:01.873Z,50.20
2019-02-18T13:15:54.390Z,50.80
2019-02-18T13:18:46.524Z,50.10
2019-02-18T13:21:38.974Z,49.80
2019-02-18T13:24:32.307Z,49.50
2019-02-18T13:27:24.931Z,50.50
2019-02-18T13:30:18.466Z,50.50
2019-02-18T13:33:10.802Z,50.90
2019-02-18T13:36:02.624Z,51.20
2019-02-18T13:38:54.868Z,51.10
2019-02-18T13:41:47.149Z,51.50
2019-02-18T13:44:40.582Z,50.80
2019-02-18T13:47:32.750Z,50.80
2019-02-18T13:50:24.853Z,50.70
2019-02-18T13:53:17.127Z,50.90
2019-02-18T13:56:09.831Z,51.00
2019-02-18T13:59:02.579Z,51.00
2019-02-18T14:01:54.501Z,50.60
2019-02-18T14:04:46.887Z,50.50
2019-02-18T14:07:39.094Z,49.80
2019-02-18T14:10:31.122Z,49.80
2019-02-18T14:13:23.386Z,49.90
2019-02-18T14:16:15.539Z,49.60
2019-02-18T14:19:07.951Z,50.40
2019-02-18T14:22:00.743Z,50.40
2019-02-18T14:24:53.022Z,50.90
2019-02-18T14:27:45.505Z,51.10
2019-02-18T14:30:38.002Z,50.80
2019-02-18T14:33:30.945Z,50.80
2019-02-18T14:36:23.702Z,51.00
2019-02-18T14:39:24.490Z,51.20
2019-02-18T14:42:24.336Z,51.30
2019-02-18T14:45:12.141Z,51.40
2019-02-18T14:48:04.256Z,51.50
2019-02-18T14:50:56.944Z,50.30
2019-02-18T14:53:49.760Z,49.90
2019-02-18T14:56:42.429Z,49.80
2019-02-18T14:59:34.870Z,49.10
2019-02-18T15:02:28.335Z,48.90
2019-02-18T15:05:22.586Z,48.40
2019-02-18T15:08:15.417Z,48.50
2019-02-18T15:11:07.928Z,48.60
2019-02-18T15:14:00.321Z,48.90
2019-02-18T15:16:52.458Z,48.70
2019-02-18T15:19:44.765Z,48.30
2019-02-18T15:22:37.458Z,48.60
2019-02-18T15:25:30.222Z,48.70
2019-02-18T15:28:23.444Z,49.00
2019-02-18T15:31:15.959Z,49.10
2019-02-18T15:34:08.234Z,48.90
2019-02-18T15:37:01.495Z,48.90
2019-02-18T15:39:53.683Z,48.90
2019-02-18T15:42:47.419Z,48.70
2019-02-18T15:45:40.243Z,48.90
2019-02-18T15:48:32.435Z,48.70
2019-02-18T15:51:24.782Z,48.50
2019-02-18T15:54:17.173Z,48.10
2019-02-18T15:57:09.283Z,48.10
2019-02-18T16:00:01.836Z,48.00
2019-02-18T16:02:55.543Z,47.70
2019-02-18T16:05:47.827Z,47.90
2019-02-18T16:08:40.439Z,48.00
2019-02-18T16:11:32.876Z,47.80
2019-02-18T16:14:25.170Z,47.90
2019-02-18T16:17:17.346Z,47.90
2019-02-18T16:20:10.084Z,47.60
2019-02-18T16:23:03.323Z,47.30
2019-02-18T16:25:55.970Z,47.50
2019-02-18T16:28:48.959Z,47.40
2019-02-18T16:31:41.685Z,47.40
2019-02-18T16:34:33.997Z,47.30
2019-02-18T16:37:26.450Z,47.20
2019-02-18T16:40:20.744Z,47.00
2019-02-18T16:43:13.432Z,47.00
2019-02-18T16:46:06.038Z,47.10
2019-02-18T16:48:58.456Z,47.70
2019-02-18T16:51:50.452Z,48.10
2019-02-18T16:54:42.434Z,48.50
2019-02-18T16:57:34.547Z,48.30
2019-02-18T17:00:34.491Z,48.70
2019-02-18T17:03:26.647Z,48.50
2019-02-18T17:06:19.245Z,48.40
2019-02-18T17:09:15.133Z,48.50
2019-02-18T17:12:07.336Z,48.80
2019-02-18T17:14:59.660Z,47.40
2019-02-18T17:17:52.002Z,47.00
2019-02-18T17:20:44.336Z,47.10
2019-02-18T17:23:36.975Z,46.90
2019-02-18T17:26:29.355Z,46.60
2019-02-18T17:29:21.669Z,46.60
2019-02-18T17:32:13.822Z,46.50
2019-02-18T17:35:06.452Z,46.60
2019-02-18T17:37:58.410Z,46.30
2019-02-18T17:40:51.356Z,46.20
2019-02-18T17:43:43.646Z,46.30
2019-02-18T17:46:36.018Z,46.00
2019-02-18T17:49:28.548Z,46.00
2019-02-18T17:52:21.030Z,45.80
2019-02-18T17:55:14.050Z,45.90
2019-02-18T17:58:06.616Z,46.50
2019-02-18T18:00:59.170Z,46.80
2019-02-18T18:03:51.251Z,46.20
2019-02-18T18:06:43.517Z,46.30
2019-02-18T18:09:38.847Z,45.90
2019-02-18T18:12:31.298Z,46.50
2019-02-18T18:15:23.641Z,46.70
2019-02-18T18:18:16.656Z,46.60
2019-02-18T18:21:09.365Z,47.00
2019-02-18T18:24:01.437Z,46.90
2019-02-18T18:26:54.595Z,47.10
2019-02-18T18:29:46.547Z,46.70
2019-02-18T18:32:38.678Z,46.50
2019-02-18T18:35:30.732Z,46.80
2019-02-18T18:38:22.864Z,47.20
2019-02-18T18:41:14.751Z,47.20
2019-02-18T18:44:07.251Z,47.00
2019-02-18T18:46:59.443Z,47.20
2019-02-18T18:49:51.896Z,47.00
2019-02-18T18:52:44.459Z,47.20
2019-02-18T18:55:36.890Z,47.20
2019-02-18T18:58:29.127Z,47.50
2019-02-18T19:01:21.251Z,47.40
2019-02-18T19:04:13.387Z,47.40
2019-02-18T19:07:06.130Z,47.30
2019-02-18T19:09:58.494Z,47.40
2019-02-18T19:12:51.045Z,47.40
2019-02-18T19:15:49.440Z,47.20
2019-02-18T19:18:36.885Z,47.30
2019-02-18T19:21:29.186Z,47.50
2019-02-18T19:24:21.896Z,47.90
2019-02-18T19:27:14.099Z,47.70
2019-02-18T19:30:07.106Z,48.00
2019-02-18T19:32:59.355Z,48.20
2019-02-18T19:35:51.845Z,47.90
2019-02-18T19:38:45.135Z,48.20
2019-02-18T19:41:37.302Z,48.60
2019-02-18T19:44:29.903Z,48.40
2019-02-18T19:47:21.989Z,48.70
2019-02-18T19:50:14.046Z,48.70
2019-02-18T19:53:05.938Z,48.70
2019-02-18T19:55:58.395Z,48.80
2019-02-18T19:58:50.485Z,49.00
2019-02-18T20:01:42.794Z,49.00
2019-02-18T20:04:34.726Z,48.80
2019-02-18T20:07:27.118Z,48.60
2019-02-18T20:10:19.727Z,49.00
2019-02-18T20:13:11.542Z,49.10
2019-02-18T20:16:04.182Z,49.20
2019-02-18T20:18:56.099Z,49.30
2019-02-18T20:21:48.507Z,49.10
2019-02-18T20:24:40.813Z,49.30
2019-02-18T20:27:32.863Z,48.90
2019-02-18T20:30:25.226Z,49.20
2019-02-18T20:33:17.262Z,49.50
2019-02-18T20:36:09.594Z,49.60
2019-02-18T20:39:03.363Z,49.70
2019-02-18T20:41:56.697Z,49.70
2019-02-18T20:44:49.270Z,49.60
2019-02-18T20:47:41.519Z,49.70
2019-02-18T20:50:34.032Z,50.10
2019-02-18T20:53:26.475Z,50.20
2019-02-18T20:56:18.849Z,50.20
2019-02-18T20:59:11.159Z,49.90
2019-02-18T21:02:03.082Z,50.10
2019-02-18T21:04:55.030Z,50.30
2019-02-18T21:07:47.433Z,50.40
2019-02-18T21:10:39.518Z,50.50
2019-02-18T21:13:31.863Z,50.50
2019-02-18T21:16:24.180Z,50.40
2019-02-18T21:19:16.207Z,50.40
2019-02-18T21:22:08.142Z,50.30
2019-02-18T21:25:00.261Z,50.30
2019-02-18T21:27:52.181Z,50.20
2019-02-18T21:30:44.350Z,50.60
2019-02-18T21:33:37.582Z,50.90
2019-02-18T21:36:29.604Z,51.00
2019-02-18T21:39:24.795Z,51.00
2019-02-18T21:42:16.791Z,51.00
2019-02-18T21:45:08.780Z,51.10
2019-02-18T21:48:00.808Z,51.10
2019-02-18T21:50:52.807Z,51.10
2019-02-18T21:53:44.850Z,51.20
2019-02-18T21:56:37.244Z,51.10
2019-02-18T21:59:29.652Z,51.10
2019-02-18T22:02:23.317Z,51.30
2019-02-18T22:05:15.363Z,51.10
2019-02-18T22:08:07.627Z,51.30
2019-02-18T22:10:59.609Z,51.40
2019-02-18T22:13:51.506Z,51.60
2019-02-18T22:16:43.902Z,51.20
2019-02-18T22:19:35.743Z,51.20
2019-02-18T22:22:27.973Z,51.20
2019-02-18T22:25:20.292Z,51.50
2019-02-18T22:28:12.257Z,51.20
2019-02-18T22:31:05.612Z,51.40
2019-02-18T22:33:57.975Z,51.50
2019-02-18T22:36:50.563Z,51.60
2019-02-18T22:39:43.502Z,51.60
2019-02-18T22:42:35.646Z,51.60
2019-02-18T22:45:28.833Z,51.70
2019-02-18T22:48:20.983Z,51.60
2019-02-18T22:51:12.994Z,51.70
2019-02-18T22:54:05.552Z,51.80
2019-02-18T22:56:57.566Z,51.80
2019-02-18T22:59:49.903Z,51.70
2019-02-18T23:02:43.659Z,51.70
2019-02-18T23:05:36.429Z,51.80
2019-02-18T23:08:28.787Z,51.70
2019-02-18T23:11:21.360Z,51.50
2019-02-18T23:14:13.799Z,51.60
2019-02-18T23:17:05.727Z,51.80
2019-02-18T23:19:59.049Z,51.70
2019-02-18T23:22:51.288Z,51.70
2019-02-18T23:25:43.492Z,52.00
2019-02-18T23:28:35.437Z,52.00
2019-02-18T23:31:27.478Z,51.90
2019-02-18T23:34:19.835Z,51.80
2019-02-18T23:37:11.835Z,51.90
2019-02-18T23:40:04.487Z,52.00
2019-02-18T23:42:56.766Z,52.00
2019-02-18T23:45:48.910Z,52.20
2019-02-18T23:48:41.239Z,52.20
2019-02-18T23:51:33.405Z,52.00
2019-02-18T23:54:25.867Z,52.20
2019-02-18T23:57:18.158Z,52.50
